sensor_id;sensor_type;location;lat;lon;timestamp;pressure;altitude;pressure_sealevel;temperature;humidity
18918;BME280;9591;52.742;13.650;2024-02-23T00:02:28;97914.38;;;22.92;41.52
18918;BME280;9591;52.742;13.650;2024-02-23T00:05:15;97905.03;;;22.45;42.67
18918;BME280;9591;52.742;13.650;2024-02-23T00:08:02;97909.56;;;22.66;42.41
18918;BME280;9591;52.742;13.650;2024-02-23T00:10:48;97911.38;;;22.80;41.85
18918;BME280;9591;52.742;13.650;2024-02-23T00:13:37;97906.63;;;22.18;43.15
18918;BME280;9591;52.742;13.650;2024-02-23T00:16:23;97897.88;;;22.80;41.59
18918;BME280;9591;52.742;13.650;2024-02-23T00:19:13;97911.13;;;22.33;43.06
18918;BME280;9591;52.742;13.650;2024-02-23T00:22:00;97899.97;;;22.64;42.39
18918;BME280;9591;52.742;13.650;2024-02-23T00:24:50;97900.44;;;23.16;40.98
18918;BME280;9591;52.742;13.650;2024-02-23T00:27:37;97904.81;;;22.68;42.10
18918;BME280;9591;52.742;13.650;2024-02-23T00:30:24;97908.00;;;22.78;41.91
18918;BME280;9591;52.742;13.650;2024-02-23T00:33:12;97911.25;;;23.16;41.10
18918;BME280;9591;52.742;13.650;2024-02-23T00:36:01;97906.47;;;22.91;41.74
18918;BME280;9591;52.742;13.650;2024-02-23T00:38:47;97903.19;;;22.74;42.22
18918;BME280;9591;52.742;13.650;2024-02-23T00:41:35;97894.19;;;22.39;42.89
18918;BME280;9591;52.742;13.650;2024-02-23T00:44:21;97891.31;;;22.89;41.76
18918;BME280;9591;52.742;13.650;2024-02-23T00:47:08;97894.84;;;21.90;43.35
18918;BME280;9591;52.742;13.650;2024-02-23T00:49:55;97899.56;;;22.17;42.80
18918;BME280;9591;52.742;13.650;2024-02-23T00:52:43;97907.06;;;22.22;42.84
18918;BME280;9591;52.742;13.650;2024-02-23T00:55:30;97891.06;;;22.63;41.85
18918;BME280;9591;52.742;13.650;2024-02-23T00:58:17;97890.09;;;22.71;41.56
18918;BME280;9591;52.742;13.650;2024-02-23T01:01:04;97893.38;;;22.66;41.50
18918;BME280;9591;52.742;13.650;2024-02-23T01:03:50;97909.25;;;22.33;41.97
18918;BME280;9591;52.742;13.650;2024-02-23T01:06:37;97907.66;;;22.39;41.91
18918;BME280;9591;52.742;13.650;2024-02-23T01:09:25;97916.56;;;22.61;41.32
18918;BME280;9591;52.742;13.650;2024-02-23T01:12:12;97896.03;;;23.09;40.23
18918;BME280;9591;52.742;13.650;2024-02-23T01:14:59;97909.50;;;23.37;39.99
18918;BME280;9591;52.742;13.650;2024-02-23T01:17:50;97917.41;;;21.53;43.46
18918;BME280;9591;52.742;13.650;2024-02-23T01:20:37;97847.25;;;21.76;42.20
18918;BME280;9591;52.742;13.650;2024-02-23T01:23:24;97925.75;;;22.45;41.35
18918;BME280;9591;52.742;13.650;2024-02-23T01:26:12;97935.72;;;23.49;39.42
18918;BME280;9591;52.742;13.650;2024-02-23T01:28:59;97940.00;;;22.39;41.46
18918;BME280;9591;52.742;13.650;2024-02-23T01:31:46;97953.53;;;23.09;39.91
18918;BME280;9591;52.742;13.650;2024-02-23T01:34:33;97955.03;;;22.48;41.29
18918;BME280;9591;52.742;13.650;2024-02-23T01:37:20;97961.94;;;22.78;40.51
18918;BME280;9591;52.742;13.650;2024-02-23T01:40:10;97970.19;;;22.49;41.29
18918;BME280;9591;52.742;13.650;2024-02-23T01:43:03;97967.31;;;22.93;40.28
18918;BME280;9591;52.742;13.650;2024-02-23T01:45:50;97973.72;;;23.13;39.89
18918;BME280;9591;52.742;13.650;2024-02-23T01:48:36;97986.91;;;23.02;39.99
18918;BME280;9591;52.742;13.650;2024-02-23T01:51:24;97996.47;;;21.96;41.75
18918;BME280;9591;52.742;13.650;2024-02-23T01:54:10;97997.13;;;21.83;41.94
18918;BME280;9591;52.742;13.650;2024-02-23T01:56:58;98001.06;;;22.46;40.63
18918;BME280;9591;52.742;13.650;2024-02-23T02:00:09;98002.00;;;22.96;39.35
18918;BME280;9591;52.742;13.650;2024-02-23T02:03:02;98003.28;;;22.07;40.45
18918;BME280;9591;52.742;13.650;2024-02-23T02:05:52;98027.56;;;22.79;39.84
18918;BME280;9591;52.742;13.650;2024-02-23T02:08:39;98034.13;;;22.91;39.30
18918;BME280;9591;52.742;13.650;2024-02-23T02:11:26;98049.47;;;23.33;38.02
18918;BME280;9591;52.742;13.650;2024-02-23T02:14:13;98051.78;;;22.57;39.57
18918;BME280;9591;52.742;13.650;2024-02-23T02:17:02;98068.38;;;21.81;40.59
18918;BME280;9591;52.742;13.650;2024-02-23T02:19:49;98073.66;;;22.48;39.13
18918;BME280;9591;52.742;13.650;2024-02-23T02:22:35;98086.91;;;22.64;38.28
18918;BME280;9591;52.742;13.650;2024-02-23T02:25:22;98108.59;;;22.56;38.46
18918;BME280;9591;52.742;13.650;2024-02-23T02:28:09;98106.78;;;22.42;38.23
18918;BME280;9591;52.742;13.650;2024-02-23T02:30:56;98102.22;;;22.13;38.82
18918;BME280;9591;52.742;13.650;2024-02-23T02:33:44;98115.28;;;21.86;38.66
18918;BME280;9591;52.742;13.650;2024-02-23T02:36:31;98115.31;;;21.49;37.75
18918;BME280;9591;52.742;13.650;2024-02-23T02:39:18;98139.97;;;22.42;36.27
18918;BME280;9591;52.742;13.650;2024-02-23T02:42:05;98147.69;;;22.16;36.13
18918;BME280;9591;52.742;13.650;2024-02-23T02:44:52;98143.41;;;22.36;34.80
18918;BME280;9591;52.742;13.650;2024-02-23T02:47:39;98157.72;;;22.51;35.01
18918;BME280;9591;52.742;13.650;2024-02-23T02:50:27;98168.19;;;22.91;34.00
18918;BME280;9591;52.742;13.650;2024-02-23T02:53:14;98182.91;;;22.29;34.34
18918;BME280;9591;52.742;13.650;2024-02-23T02:56:05;98197.66;;;21.81;35.42
18918;BME280;9591;52.742;13.650;2024-02-23T02:58:52;98188.41;;;22.50;34.08
18918;BME280;9591;52.742;13.650;2024-02-23T03:01:39;98192.16;;;20.98;35.58
18918;BME280;9591;52.742;13.650;2024-02-23T03:04:26;98200.94;;;21.53;35.08
18918;BME280;9591;52.742;13.650;2024-02-23T03:07:15;98205.06;;;21.64;33.80
18918;BME280;9591;52.742;13.650;2024-02-23T03:10:02;98227.75;;;21.08;34.89
18918;BME280;9591;52.742;13.650;2024-02-23T03:12:49;98228.81;;;21.98;33.53
18918;BME280;9591;52.742;13.650;2024-02-23T03:15:36;98231.94;;;21.87;34.09
18918;BME280;9591;52.742;13.650;2024-02-23T03:18:23;98244.16;;;21.75;34.02
18918;BME280;9591;52.742;13.650;2024-02-23T03:21:10;98249.31;;;22.07;33.79
18918;BME280;9591;52.742;13.650;2024-02-23T03:23:58;98257.44;;;20.83;35.16
18918;BME280;9591;52.742;13.650;2024-02-23T03:26:45;98271.00;;;20.98;35.39
18918;BME280;9591;52.742;13.650;2024-02-23T03:29:31;98278.28;;;19.77;35.48
18918;BME280;9591;52.742;13.650;2024-02-23T03:32:18;98286.66;;;20.94;33.89
18918;BME280;9591;52.742;13.650;2024-02-23T03:35:06;98284.97;;;19.97;33.77
18918;BME280;9591;52.742;13.650;2024-02-23T03:37:54;98312.00;;;19.29;34.75
18918;BME280;9591;52.742;13.650;2024-02-23T03:40:42;98320.41;;;20.09;33.44
18918;BME280;9591;52.742;13.650;2024-02-23T03:43:29;98319.22;;;20.28;33.24
18918;BME280;9591;52.742;13.650;2024-02-23T03:46:18;98322.56;;;20.06;32.89
18918;BME280;9591;52.742;13.650;2024-02-23T03:49:06;98329.25;;;19.69;32.99
18918;BME280;9591;52.742;13.650;2024-02-23T03:51:53;98339.84;;;21.32;31.35
18918;BME280;9591;52.742;13.650;2024-02-23T03:54:40;98343.56;;;20.18;32.28
18918;BME280;9591;52.742;13.650;2024-02-23T03:57:28;98343.22;;;19.89;33.03
18918;BME280;9591;52.742;13.650;2024-02-23T04:00:16;98353.63;;;20.08;32.99
18918;BME280;9591;52.742;13.650;2024-02-23T04:03:04;98367.94;;;20.57;32.46
18918;BME280;9591;52.742;13.650;2024-02-23T04:05:51;98364.69;;;19.97;33.18
18918;BME280;9591;52.742;13.650;2024-02-23T04:08:39;98365.41;;;19.91;32.64
18918;BME280;9591;52.742;13.650;2024-02-23T04:11:26;98379.84;;;20.14;32.79
18918;BME280;9591;52.742;13.650;2024-02-23T04:14:14;98388.38;;;19.43;33.01
18918;BME280;9591;52.742;13.650;2024-02-23T04:17:01;98377.66;;;19.09;32.74
18918;BME280;9591;52.742;13.650;2024-02-23T04:19:48;98387.84;;;19.40;32.52
18918;BME280;9591;52.742;13.650;2024-02-23T04:22:36;98394.47;;;19.53;32.83
18918;BME280;9591;52.742;13.650;2024-02-23T04:25:22;98401.22;;;20.48;31.32
18918;BME280;9591;52.742;13.650;2024-02-23T04:28:09;98412.91;;;19.90;32.46
18918;BME280;9591;52.742;13.650;2024-02-23T04:30:57;98417.28;;;20.16;31.31
18918;BME280;9591;52.742;13.650;2024-02-23T04:33:44;98428.72;;;19.59;32.13
18918;BME280;9591;52.742;13.650;2024-02-23T04:36:31;98415.75;;;19.89;32.22
18918;BME280;9591;52.742;13.650;2024-02-23T04:39:18;98433.50;;;19.82;31.84
18918;BME280;9591;52.742;13.650;2024-02-23T04:42:05;98432.91;;;20.12;31.51
18918;BME280;9591;52.742;13.650;2024-02-23T04:44:54;98449.56;;;20.32;31.16
18918;BME280;9591;52.742;13.650;2024-02-23T04:47:42;98470.97;;;20.74;30.97
18918;BME280;9591;52.742;13.650;2024-02-23T04:50:29;98469.50;;;19.03;32.30
18918;BME280;9591;52.742;13.650;2024-02-23T04:53:16;98480.34;;;19.79;31.82
18918;BME280;9591;52.742;13.650;2024-02-23T04:56:03;98478.50;;;20.38;31.46
18918;BME280;9591;52.742;13.650;2024-02-23T04:58:50;98497.06;;;19.65;31.89
18918;BME280;9591;52.742;13.650;2024-02-23T05:01:37;98507.50;;;19.76;31.29
18918;BME280;9591;52.742;13.650;2024-02-23T05:04:26;98499.16;;;19.95;31.27
18918;BME280;9591;52.742;13.650;2024-02-23T05:07:14;98513.50;;;19.18;31.78
18918;BME280;9591;52.742;13.650;2024-02-23T05:10:00;98514.78;;;19.32;31.41
18918;BME280;9591;52.742;13.650;2024-02-23T05:12:47;98524.22;;;20.04;30.74
18918;BME280;9591;52.742;13.650;2024-02-23T05:15:34;98540.22;;;19.28;32.10
18918;BME280;9591;52.742;13.650;2024-02-23T05:18:21;98545.31;;;19.83;31.25
18918;BME280;9591;52.742;13.650;2024-02-23T05:21:09;98554.34;;;20.24;31.18
18918;BME280;9591;52.742;13.650;2024-02-23T05:23:56;98582.41;;;19.87;30.97
18918;BME280;9591;52.742;13.650;2024-02-23T05:26:43;98579.97;;;20.44;30.02
18918;BME280;9591;52.742;13.650;2024-02-23T05:29:30;98580.09;;;19.23;30.75
18918;BME280;9591;52.742;13.650;2024-02-23T05:32:17;98571.59;;;19.27;30.99
18918;BME280;9591;52.742;13.650;2024-02-23T05:35:05;98595.91;;;19.70;30.27
18918;BME280;9591;52.742;13.650;2024-02-23T05:37:53;98590.34;;;19.63;30.31
18918;BME280;9591;52.742;13.650;2024-02-23T05:40:40;98593.97;;;20.22;29.70
18918;BME280;9591;52.742;13.650;2024-02-23T05:43:28;98617.06;;;19.73;30.01
18918;BME280;9591;52.742;13.650;2024-02-23T05:46:18;98624.31;;;19.54;30.24
18918;BME280;9591;52.742;13.650;2024-02-23T05:49:07;98643.19;;;19.45;30.20
18918;BME280;9591;52.742;13.650;2024-02-23T05:51:55;98652.53;;;18.15;31.12
18918;BME280;9591;52.742;13.650;2024-02-23T05:54:44;98648.66;;;18.99;30.96
18918;BME280;9591;52.742;13.650;2024-02-23T05:57:33;98659.28;;;18.46;31.11
18918;BME280;9591;52.742;13.650;2024-02-23T06:00:21;98664.09;;;19.77;29.88
18918;BME280;9591;52.742;13.650;2024-02-23T06:03:08;98691.81;;;18.61;30.83
18918;BME280;9591;52.742;13.650;2024-02-23T06:05:54;98701.84;;;19.22;30.47
18918;BME280;9591;52.742;13.650;2024-02-23T06:08:41;98681.44;;;19.29;30.75
18918;BME280;9591;52.742;13.650;2024-02-23T06:11:30;98693.59;;;18.06;31.79
18918;BME280;9591;52.742;13.650;2024-02-23T06:14:17;98711.03;;;18.84;30.99
18918;BME280;9591;52.742;13.650;2024-02-23T06:17:04;98720.41;;;18.70;31.63
18918;BME280;9591;52.742;13.650;2024-02-23T06:19:52;98728.84;;;19.03;30.77
18918;BME280;9591;52.742;13.650;2024-02-23T06:22:43;98750.03;;;18.96;31.35
18918;BME280;9591;52.742;13.650;2024-02-23T06:25:30;98752.28;;;19.18;30.51
18918;BME280;9591;52.742;13.650;2024-02-23T06:28:18;98772.22;;;18.61;31.33
18918;BME280;9591;52.742;13.650;2024-02-23T06:31:05;98779.00;;;18.46;31.50
18918;BME280;9591;52.742;13.650;2024-02-23T06:33:52;98796.88;;;18.74;31.35
18918;BME280;9591;52.742;13.650;2024-02-23T06:36:39;98793.28;;;19.11;30.48
18918;BME280;9591;52.742;13.650;2024-02-23T06:39:26;98794.41;;;18.90;30.61
18918;BME280;9591;52.742;13.650;2024-02-23T06:42:12;98803.47;;;19.07;30.81
18918;BME280;9591;52.742;13.650;2024-02-23T06:45:01;98789.91;;;18.81;30.96
18918;BME280;9591;52.742;13.650;2024-02-23T06:47:48;98811.25;;;17.59;32.93
18918;BME280;9591;52.742;13.650;2024-02-23T06:50:35;98815.06;;;18.14;31.79
18918;BME280;9591;52.742;13.650;2024-02-23T06:53:21;98826.44;;;18.35;31.28
18918;BME280;9591;52.742;13.650;2024-02-23T06:56:08;98839.75;;;17.69;32.07
18918;BME280;9591;52.742;13.650;2024-02-23T06:58:55;98838.50;;;19.06;30.70
18918;BME280;9591;52.742;13.650;2024-02-23T07:01:50;98832.91;;;18.99;30.92
18918;BME280;9591;52.742;13.650;2024-02-23T07:04:37;98840.66;;;19.02;30.35
18918;BME280;9591;52.742;13.650;2024-02-23T07:07:24;98846.56;;;19.06;30.46
18918;BME280;9591;52.742;13.650;2024-02-23T07:10:14;98868.53;;;19.37;30.02
18918;BME280;9591;52.742;13.650;2024-02-23T07:13:03;98859.47;;;18.92;31.44
18918;BME280;9591;52.742;13.650;2024-02-23T07:15:51;98856.66;;;18.84;30.67
18918;BME280;9591;52.742;13.650;2024-02-23T07:18:40;98862.78;;;18.57;31.07
18918;BME280;9591;52.742;13.650;2024-02-23T07:21:27;98877.94;;;19.50;30.52
18918;BME280;9591;52.742;13.650;2024-02-23T07:24:14;98899.41;;;19.50;30.37
18918;BME280;9591;52.742;13.650;2024-02-23T07:27:00;98903.38;;;19.46;30.23
18918;BME280;9591;52.742;13.650;2024-02-23T07:29:48;98899.13;;;19.53;29.95
18918;BME280;9591;52.742;13.650;2024-02-23T07:32:35;98905.00;;;19.67;30.16
18918;BME280;9591;52.742;13.650;2024-02-23T07:35:24;98901.03;;;19.71;30.06
18918;BME280;9591;52.742;13.650;2024-02-23T07:38:11;98909.34;;;19.40;30.53
18918;BME280;9591;52.742;13.650;2024-02-23T07:40:58;98923.66;;;19.68;30.29
18918;BME280;9591;52.742;13.650;2024-02-23T07:43:45;98924.59;;;20.48;29.07
18918;BME280;9591;52.742;13.650;2024-02-23T07:46:32;98923.59;;;20.49;29.22
18918;BME280;9591;52.742;13.650;2024-02-23T07:49:18;98930.41;;;20.08;29.88
18918;BME280;9591;52.742;13.650;2024-02-23T07:52:07;98927.94;;;19.24;30.31
18918;BME280;9591;52.742;13.650;2024-02-23T07:54:54;98934.25;;;20.05;29.67
18918;BME280;9591;52.742;13.650;2024-02-23T07:57:41;98933.44;;;19.59;29.87
18918;BME280;9591;52.742;13.650;2024-02-23T08:00:28;98940.97;;;19.46;30.03
18918;BME280;9591;52.742;13.650;2024-02-23T08:03:14;98945.13;;;19.04;29.98
18918;BME280;9591;52.742;13.650;2024-02-23T08:06:01;98945.72;;;19.62;30.22
18918;BME280;9591;52.742;13.650;2024-02-23T08:08:49;98947.72;;;19.13;30.26
18918;BME280;9591;52.742;13.650;2024-02-23T08:11:36;98957.19;;;20.00;29.18
18918;BME280;9591;52.742;13.650;2024-02-23T08:14:23;98972.38;;;19.73;30.16
18918;BME280;9591;52.742;13.650;2024-02-23T08:17:10;98964.22;;;19.28;30.02
18918;BME280;9591;52.742;13.650;2024-02-23T08:19:57;98973.06;;;20.56;28.77
18918;BME280;9591;52.742;13.650;2024-02-23T08:22:44;98989.13;;;20.03;29.02
18918;BME280;9591;52.742;13.650;2024-02-23T08:25:32;98978.81;;;21.05;27.57
18918;BME280;9591;52.742;13.650;2024-02-23T08:28:19;98976.28;;;20.77;27.72
18918;BME280;9591;52.742;13.650;2024-02-23T08:31:06;98988.97;;;20.67;28.02
18918;BME280;9591;52.742;13.650;2024-02-23T08:33:53;98999.25;;;20.36;28.16
18918;BME280;9591;52.742;13.650;2024-02-23T08:36:40;99004.56;;;20.46;28.04
18918;BME280;9591;52.742;13.650;2024-02-23T08:39:27;99008.44;;;19.24;29.38
18918;BME280;9591;52.742;13.650;2024-02-23T08:42:15;99018.50;;;20.14;28.66
18918;BME280;9591;52.742;13.650;2024-02-23T08:45:02;99024.44;;;20.35;28.17
18918;BME280;9591;52.742;13.650;2024-02-23T08:47:50;99016.34;;;20.17;27.80
18918;BME280;9591;52.742;13.650;2024-02-23T08:50:36;99009.47;;;19.87;28.75
18918;BME280;9591;52.742;13.650;2024-02-23T08:53:24;99021.16;;;20.59;28.22
18918;BME280;9591;52.742;13.650;2024-02-23T08:56:11;99003.91;;;20.34;28.68
18918;BME280;9591;52.742;13.650;2024-02-23T08:58:59;99008.78;;;19.48;29.28
18918;BME280;9591;52.742;13.650;2024-02-23T09:01:45;99016.91;;;19.19;29.41
18918;BME280;9591;52.742;13.650;2024-02-23T09:04:33;99031.13;;;19.86;29.07
18918;BME280;9591;52.742;13.650;2024-02-23T09:07:20;99036.34;;;18.65;29.17
18918;BME280;9591;52.742;13.650;2024-02-23T09:10:08;99047.09;;;20.33;28.53
18918;BME280;9591;52.742;13.650;2024-02-23T09:12:55;99046.31;;;21.11;27.71
18918;BME280;9591;52.742;13.650;2024-02-23T09:15:43;99046.78;;;20.36;28.05
18918;BME280;9591;52.742;13.650;2024-02-23T09:18:30;99054.38;;;20.68;28.45
18918;BME280;9591;52.742;13.650;2024-02-23T09:21:17;99053.69;;;18.99;29.50
18918;BME280;9591;52.742;13.650;2024-02-23T09:24:05;99059.38;;;19.53;29.11
18918;BME280;9591;52.742;13.650;2024-02-23T09:26:52;99060.22;;;19.90;28.82
18918;BME280;9591;52.742;13.650;2024-02-23T09:29:40;99057.47;;;20.99;27.82
18918;BME280;9591;52.742;13.650;2024-02-23T09:32:28;99072.09;;;20.43;28.62
18918;BME280;9591;52.742;13.650;2024-02-23T09:35:15;99077.34;;;20.35;29.04
18918;BME280;9591;52.742;13.650;2024-02-23T09:38:03;99080.91;;;19.80;28.62
18918;BME280;9591;52.742;13.650;2024-02-23T09:40:49;99074.47;;;20.46;28.46
18918;BME280;9591;52.742;13.650;2024-02-23T09:43:36;99084.66;;;21.31;27.25
18918;BME280;9591;52.742;13.650;2024-02-23T09:46:25;99092.63;;;20.79;28.01
18918;BME280;9591;52.742;13.650;2024-02-23T09:49:14;99091.09;;;20.77;28.21
18918;BME280;9591;52.742;13.650;2024-02-23T09:52:02;99097.63;;;21.53;27.40
18918;BME280;9591;52.742;13.650;2024-02-23T09:54:49;99097.28;;;20.95;28.28
18918;BME280;9591;52.742;13.650;2024-02-23T09:57:36;99099.84;;;20.06;27.82
18918;BME280;9591;52.742;13.650;2024-02-23T10:00:23;99095.06;;;20.90;27.37
18918;BME280;9591;52.742;13.650;2024-02-23T10:03:10;99116.13;;;20.95;27.84
18918;BME280;9591;52.742;13.650;2024-02-23T10:05:59;99123.44;;;20.85;26.69
18918;BME280;9591;52.742;13.650;2024-02-23T10:08:47;99123.31;;;21.74;26.69
18918;BME280;9591;52.742;13.650;2024-02-23T10:11:34;99126.50;;;20.90;27.29
18918;BME280;9591;52.742;13.650;2024-02-23T10:14:21;99119.63;;;20.42;26.67
18918;BME280;9591;52.742;13.650;2024-02-23T10:17:08;99123.28;;;21.04;26.51
18918;BME280;9591;52.742;13.650;2024-02-23T10:19:55;99116.59;;;21.08;26.61
18918;BME280;9591;52.742;13.650;2024-02-23T10:22:45;99117.72;;;20.52;25.86
18918;BME280;9591;52.742;13.650;2024-02-23T10:25:33;99123.81;;;21.08;25.33
18918;BME280;9591;52.742;13.650;2024-02-23T10:28:20;99132.19;;;21.05;25.30
18918;BME280;9591;52.742;13.650;2024-02-23T10:31:08;99135.97;;;21.12;25.55
18918;BME280;9591;52.742;13.650;2024-02-23T10:33:58;99130.38;;;21.23;25.07
18918;BME280;9591;52.742;13.650;2024-02-23T10:36:46;99120.28;;;20.89;25.54
18918;BME280;9591;52.742;13.650;2024-02-23T10:39:36;99127.81;;;21.39;25.23
18918;BME280;9591;52.742;13.650;2024-02-23T10:42:24;99131.19;;;20.88;26.27
18918;BME280;9591;52.742;13.650;2024-02-23T10:45:16;99128.09;;;19.83;25.76
18918;BME280;9591;52.742;13.650;2024-02-23T10:48:03;99106.97;;;21.41;26.01
18918;BME280;9591;52.742;13.650;2024-02-23T10:50:50;99111.50;;;20.24;26.92
18918;BME280;9591;52.742;13.650;2024-02-23T10:53:39;99130.72;;;20.92;26.47
18918;BME280;9591;52.742;13.650;2024-02-23T10:56:28;99118.28;;;20.56;26.70
18918;BME280;9591;52.742;13.650;2024-02-23T10:59:15;99125.34;;;20.92;26.04
18918;BME280;9591;52.742;13.650;2024-02-23T11:02:05;99130.16;;;21.94;25.04
18918;BME280;9591;52.742;13.650;2024-02-23T11:04:53;99126.22;;;22.40;24.61
18918;BME280;9591;52.742;13.650;2024-02-23T11:07:42;99120.69;;;22.66;25.03
18918;BME280;9591;52.742;13.650;2024-02-23T11:10:29;99123.53;;;22.56;23.69
18918;BME280;9591;52.742;13.650;2024-02-23T11:13:18;99127.00;;;22.91;24.70
18918;BME280;9591;52.742;13.650;2024-02-23T11:16:05;99120.72;;;22.74;23.98
18918;BME280;9591;52.742;13.650;2024-02-23T11:19:03;99105.13;;;22.36;24.75
18918;BME280;9591;52.742;13.650;2024-02-23T11:21:52;99139.03;;;22.46;24.69
18918;BME280;9591;52.742;13.650;2024-02-23T11:24:42;99136.06;;;21.64;25.40
18918;BME280;9591;52.742;13.650;2024-02-23T11:27:31;99128.88;;;20.93;25.89
18918;BME280;9591;52.742;13.650;2024-02-23T11:30:20;99123.38;;;20.77;26.21
18918;BME280;9591;52.742;13.650;2024-02-23T11:33:08;99135.94;;;19.94;25.97
18918;BME280;9591;52.742;13.650;2024-02-23T11:36:04;99139.97;;;20.90;24.89
18918;BME280;9591;52.742;13.650;2024-02-23T11:38:53;99150.63;;;20.64;26.52
18918;BME280;9591;52.742;13.650;2024-02-23T11:41:40;99157.56;;;21.20;25.67
18918;BME280;9591;52.742;13.650;2024-02-23T11:44:27;99159.72;;;22.04;25.13
18918;BME280;9591;52.742;13.650;2024-02-23T11:47:16;99156.25;;;21.59;25.52
18918;BME280;9591;52.742;13.650;2024-02-23T11:50:03;99152.91;;;21.22;25.82
18918;BME280;9591;52.742;13.650;2024-02-23T11:52:51;99153.41;;;21.08;25.53
18918;BME280;9591;52.742;13.650;2024-02-23T11:55:39;99161.94;;;21.56;26.08
18918;BME280;9591;52.742;13.650;2024-02-23T11:58:26;99151.25;;;22.24;24.61
18918;BME280;9591;52.742;13.650;2024-02-23T12:01:12;99167.00;;;21.85;25.70
18918;BME280;9591;52.742;13.650;2024-02-23T12:04:01;99156.81;;;21.45;24.55
18918;BME280;9591;52.742;13.650;2024-02-23T12:06:48;99166.03;;;21.43;26.24
18918;BME280;9591;52.742;13.650;2024-02-23T12:09:35;99172.59;;;21.40;26.14
18918;BME280;9591;52.742;13.650;2024-02-23T12:12:22;99180.25;;;21.17;25.04
18918;BME280;9591;52.742;13.650;2024-02-23T12:15:09;99174.13;;;21.43;25.93
18918;BME280;9591;52.742;13.650;2024-02-23T12:17:58;99179.03;;;21.12;25.62
18918;BME280;9591;52.742;13.650;2024-02-23T12:20:48;99176.13;;;21.67;25.39
18918;BME280;9591;52.742;13.650;2024-02-23T12:23:39;99172.72;;;21.21;26.72
18918;BME280;9591;52.742;13.650;2024-02-23T12:26:26;99167.41;;;20.93;25.82
18918;BME280;9591;52.742;13.650;2024-02-23T12:29:13;99173.44;;;21.92;25.60
18918;BME280;9591;52.742;13.650;2024-02-23T12:32:04;99178.16;;;22.16;25.11
18918;BME280;9591;52.742;13.650;2024-02-23T12:34:52;99173.94;;;22.98;24.18
18918;BME280;9591;52.742;13.650;2024-02-23T12:37:40;99165.84;;;22.56;24.81
18918;BME280;9591;52.742;13.650;2024-02-23T12:40:29;99183.78;;;22.73;24.32
18918;BME280;9591;52.742;13.650;2024-02-23T12:43:17;99183.72;;;22.57;24.46
18918;BME280;9591;52.742;13.650;2024-02-23T12:46:03;99185.97;;;21.76;24.65
18918;BME280;9591;52.742;13.650;2024-02-23T12:48:52;99192.72;;;21.54;25.46
18918;BME280;9591;52.742;13.650;2024-02-23T12:51:39;99194.16;;;20.77;26.11
18918;BME280;9591;52.742;13.650;2024-02-23T12:54:27;99200.56;;;21.91;25.68
18918;BME280;9591;52.742;13.650;2024-02-23T12:57:14;99207.50;;;21.76;25.56
18918;BME280;9591;52.742;13.650;2024-02-23T13:00:01;99211.38;;;21.99;25.44
18918;BME280;9591;52.742;13.650;2024-02-23T13:02:50;99207.63;;;22.10;24.34
18918;BME280;9591;52.742;13.650;2024-02-23T13:05:37;99212.22;;;21.74;25.31
18918;BME280;9591;52.742;13.650;2024-02-23T13:08:24;99218.41;;;22.10;25.01
18918;BME280;9591;52.742;13.650;2024-02-23T13:11:13;99217.09;;;21.96;24.75
18918;BME280;9591;52.742;13.650;2024-02-23T13:14:00;99217.44;;;21.49;24.37
18918;BME280;9591;52.742;13.650;2024-02-23T13:16:48;99216.72;;;22.43;24.17
18918;BME280;9591;52.742;13.650;2024-02-23T13:19:34;99217.91;;;21.00;25.49
18918;BME280;9591;52.742;13.650;2024-02-23T13:22:21;99231.22;;;21.46;25.21
18918;BME280;9591;52.742;13.650;2024-02-23T13:25:08;99222.84;;;22.19;24.60
18918;BME280;9591;52.742;13.650;2024-02-23T13:27:56;99219.91;;;21.25;25.66
18918;BME280;9591;52.742;13.650;2024-02-23T13:30:44;99224.22;;;21.36;25.59
18918;BME280;9591;52.742;13.650;2024-02-23T13:33:31;99221.06;;;21.22;25.39
18918;BME280;9591;52.742;13.650;2024-02-23T13:36:18;99221.09;;;21.13;26.02
18918;BME280;9591;52.742;13.650;2024-02-23T13:39:04;99220.50;;;21.54;25.52
18918;BME280;9591;52.742;13.650;2024-02-23T13:41:51;99224.13;;;21.45;25.59
18918;BME280;9591;52.742;13.650;2024-02-23T13:44:40;99228.56;;;21.19;25.94
18918;BME280;9591;52.742;13.650;2024-02-23T13:47:27;99225.00;;;20.55;26.43
18918;BME280;9591;52.742;13.650;2024-02-23T13:50:13;99227.84;;;20.54;26.89
18918;BME280;9591;52.742;13.650;2024-02-23T13:53:00;99222.75;;;20.78;26.17
18918;BME280;9591;52.742;13.650;2024-02-23T13:55:47;99219.28;;;20.86;25.75
18918;BME280;9591;52.742;13.650;2024-02-23T13:58:35;99211.81;;;21.25;25.27
18918;BME280;9591;52.742;13.650;2024-02-23T14:01:23;99216.19;;;22.05;24.93
18918;BME280;9591;52.742;13.650;2024-02-23T14:04:11;99222.00;;;22.18;24.85
18918;BME280;9591;52.742;13.650;2024-02-23T14:06:57;99218.53;;;22.34;24.96
18918;BME280;9591;52.742;13.650;2024-02-23T14:09:44;99220.03;;;22.03;25.27
18918;BME280;9591;52.742;13.650;2024-02-23T14:12:31;99222.47;;;21.70;25.08
18918;BME280;9591;52.742;13.650;2024-02-23T14:15:18;99221.56;;;21.62;25.96
18918;BME280;9591;52.742;13.650;2024-02-23T14:18:07;99226.44;;;21.22;26.29
18918;BME280;9591;52.742;13.650;2024-02-23T14:20:53;99212.59;;;21.35;25.86
18918;BME280;9591;52.742;13.650;2024-02-23T14:23:40;99218.63;;;21.02;26.24
18918;BME280;9591;52.742;13.650;2024-02-23T14:26:27;99208.91;;;20.46;26.82
18918;BME280;9591;52.742;13.650;2024-02-23T14:29:14;99212.66;;;21.25;26.00
18918;BME280;9591;52.742;13.650;2024-02-23T14:32:03;99223.59;;;21.59;26.06
18918;BME280;9591;52.742;13.650;2024-02-23T14:34:51;99218.59;;;21.29;26.10
18918;BME280;9591;52.742;13.650;2024-02-23T14:37:38;99236.06;;;20.80;26.74
18918;BME280;9591;52.742;13.650;2024-02-23T14:40:25;99233.28;;;20.72;26.33
18918;BME280;9591;52.742;13.650;2024-02-23T14:43:12;99230.16;;;20.29;27.29
18918;BME280;9591;52.742;13.650;2024-02-23T14:45:59;99227.94;;;20.62;26.57
18918;BME280;9591;52.742;13.650;2024-02-23T14:48:46;99241.94;;;20.19;28.07